sensor_id;sensor_type;location;lat;lon;timestamp;temperature;humidity
52203;DHT22;38173;52.850;6.970;2023-02-13T00:00:28;6.40;99.90
52203;DHT22;38173;52.850;6.970;2023-02-13T00:02:54;6.30;99.90
52203;DHT22;38173;52.850;6.970;2023-02-13T00:05:21;6.30;99.90
52203;DHT22;38173;52.850;6.970;2023-02-13T00:07:46;6.30;99.90
52203;DHT22;38173;52.850;6.970;2023-02-13T00:10:12;6.30;99.90
52203;DHT22;38173;52.850;6.970;2023-02-13T00:12:38;6.30;99.90
52203;DHT22;38173;52.850;6.970;2023-02-13T00:15:04;6.30;99.90
52203;DHT22;38173;52.850;6.970;2023-02-13T00:17:29;6.30;99.90
52203;DHT22;38173;52.850;6.970;2023-02-13T00:19:55;6.30;99.90
52203;DHT22;38173;52.850;6.970;2023-02-13T00:22:20;6.30;99.90
52203;DHT22;38173;52.850;6.970;2023-02-13T00:24:46;6.30;99.90
52203;DHT22;38173;52.850;6.970;2023-02-13T00:27:12;6.30;99.90
52203;DHT22;38173;52.850;6.970;2023-02-13T00:29:37;6.40;99.90
52203;DHT22;38173;52.850;6.970;2023-02-13T00:32:04;6.30;99.90
52203;DHT22;38173;52.850;6.970;2023-02-13T00:34:30;6.30;99.90
52203;DHT22;38173;52.850;6.970;2023-02-13T00:36:55;6.30;99.90
52203;DHT22;38173;52.850;6.970;2023-02-13T00:39:21;6.30;99.90
52203;DHT22;38173;52.850;6.970;2023-02-13T00:41:46;6.30;99.90
52203;DHT22;38173;52.850;6.970;2023-02-13T00:44:12;6.30;99.90
52203;DHT22;38173;52.850;6.970;2023-02-13T00:46:38;6.30;99.90
52203;DHT22;38173;52.850;6.970;2023-02-13T00:49:03;6.30;99.90
52203;DHT22;38173;52.850;6.970;2023-02-13T00:51:29;6.30;99.90
52203;DHT22;38173;52.850;6.970;2023-02-13T00:53:55;6.30;99.90
52203;DHT22;38173;52.850;6.970;2023-02-13T00:56:20;6.30;99.90
52203;DHT22;38173;52.850;6.970;2023-02-13T00:58:46;6.30;99.90
52203;DHT22;38173;52.850;6.970;2023-02-13T01:01:12;6.30;99.90
52203;DHT22;38173;52.850;6.970;2023-02-13T01:03:37;6.30;99.90
52203;DHT22;38173;52.850;6.970;2023-02-13T01:06:03;6.30;99.90
52203;DHT22;38173;52.850;6.970;2023-02-13T01:08:29;6.30;99.90
52203;DHT22;38173;52.850;6.970;2023-02-13T01:10:55;6.30;99.90
52203;DHT22;38173;52.850;6.970;2023-02-13T01:13:20;6.30;99.90
52203;DHT22;38173;52.850;6.970;2023-02-13T01:15:46;6.30;99.90
52203;DHT22;38173;52.850;6.970;2023-02-13T01:18:17;6.30;99.90
52203;DHT22;38173;52.850;6.970;2023-02-13T01:20:42;6.30;99.90
52203;DHT22;38173;52.850;6.970;2023-02-13T01:23:08;6.30;99.90
52203;DHT22;38173;52.850;6.970;2023-02-13T01:25:34;6.30;99.90
52203;DHT22;38173;52.850;6.970;2023-02-13T01:28:03;6.30;99.90
52203;DHT22;38173;52.850;6.970;2023-02-13T01:30:29;6.30;99.90
52203;DHT22;38173;52.850;6.970;2023-02-13T01:32:54;6.30;99.90
52203;DHT22;38173;52.850;6.970;2023-02-13T01:35:20;6.20;99.90
52203;DHT22;38173;52.850;6.970;2023-02-13T01:37:45;6.30;99.90
52203;DHT22;38173;52.850;6.970;2023-02-13T01:40:12;6.30;99.90
52203;DHT22;38173;52.850;6.970;2023-02-13T01:42:38;6.20;99.90
52203;DHT22;38173;52.850;6.970;2023-02-13T01:45:05;6.30;99.90
52203;DHT22;38173;52.850;6.970;2023-02-13T01:52:32;6.20;99.90
52203;DHT22;38173;52.850;6.970;2023-02-13T01:54:58;6.20;99.90
52203;DHT22;38173;52.850;6.970;2023-02-13T01:57:24;6.20;99.90
52203;DHT22;38173;52.850;6.970;2023-02-13T02:00:01;6.20;99.90
52203;DHT22;38173;52.850;6.970;2023-02-13T02:02:28;6.10;99.90
52203;DHT22;38173;52.850;6.970;2023-02-13T02:04:55;6.10;99.90
52203;DHT22;38173;52.850;6.970;2023-02-13T02:07:25;6.20;99.90
52203;DHT22;38173;52.850;6.970;2023-02-13T02:09:53;6.10;99.90
52203;DHT22;38173;52.850;6.970;2023-02-13T02:14:48;6.20;99.90
52203;DHT22;38173;52.850;6.970;2023-02-13T02:17:14;6.10;99.90
52203;DHT22;38173;52.850;6.970;2023-02-13T02:44:48;6.00;99.90
52203;DHT22;38173;52.850;6.970;2023-02-13T02:47:19;6.10;99.90
52203;DHT22;38173;52.850;6.970;2023-02-13T02:50:10;6.00;99.90
52203;DHT22;38173;52.850;6.970;2023-02-13T02:55:11;6.00;99.90
52203;DHT22;38173;52.850;6.970;2023-02-13T02:57:43;6.00;99.90
52203;DHT22;38173;52.850;6.970;2023-02-13T03:00:28;6.10;99.90
52203;DHT22;38173;52.850;6.970;2023-02-13T03:03:19;6.10;99.90
52203;DHT22;38173;52.850;6.970;2023-02-13T03:06:05;6.10;99.90
52203;DHT22;38173;52.850;6.970;2023-02-13T03:08:38;6.10;99.90
52203;DHT22;38173;52.850;6.970;2023-02-13T03:11:24;6.10;99.90
52203;DHT22;38173;52.850;6.970;2023-02-13T03:14:09;6.10;99.90
52203;DHT22;38173;52.850;6.970;2023-02-13T03:16:36;6.10;99.90
52203;DHT22;38173;52.850;6.970;2023-02-13T03:22:44;6.00;99.90
52203;DHT22;38173;52.850;6.970;2023-02-13T03:27:56;6.10;99.90
52203;DHT22;38173;52.850;6.970;2023-02-13T03:36:00;6.10;99.90
52203;DHT22;38173;52.850;6.970;2023-02-13T03:41:25;6.00;99.90
52203;DHT22;38173;52.850;6.970;2023-02-13T03:46:38;6.00;99.90
52203;DHT22;38173;52.850;6.970;2023-02-13T03:49:06;6.00;99.90
52203;DHT22;38173;52.850;6.970;2023-02-13T03:54:21;6.00;99.90
52203;DHT22;38173;52.850;6.970;2023-02-13T03:57:06;6.00;99.90
52203;DHT22;38173;52.850;6.970;2023-02-13T03:59:51;6.00;99.90
52203;DHT22;38173;52.850;6.970;2023-02-13T04:02:18;6.00;99.90
52203;DHT22;38173;52.850;6.970;2023-02-13T04:04:45;6.00;99.90
52203;DHT22;38173;52.850;6.970;2023-02-13T04:07:14;6.00;99.90
52203;DHT22;38173;52.850;6.970;2023-02-13T04:10:12;6.00;99.90
52203;DHT22;38173;52.850;6.970;2023-02-13T04:15:15;6.00;99.90
52203;DHT22;38173;52.850;6.970;2023-02-13T04:17:45;6.00;99.90
52203;DHT22;38173;52.850;6.970;2023-02-13T04:20:11;6.00;99.90
52203;DHT22;38173;52.850;6.970;2023-02-13T04:22:41;6.00;99.90
52203;DHT22;38173;52.850;6.970;2023-02-13T04:25:07;6.00;99.90
52203;DHT22;38173;52.850;6.970;2023-02-13T04:27:32;5.90;99.90
52203;DHT22;38173;52.850;6.970;2023-02-13T04:29:58;6.00;99.90
52203;DHT22;38173;52.850;6.970;2023-02-13T04:32:23;6.00;99.90
52203;DHT22;38173;52.850;6.970;2023-02-13T04:34:49;6.00;99.90
52203;DHT22;38173;52.850;6.970;2023-02-13T04:37:15;6.00;99.90
52203;DHT22;38173;52.850;6.970;2023-02-13T04:39:40;6.00;99.90
52203;DHT22;38173;52.850;6.970;2023-02-13T04:42:06;5.90;99.90
52203;DHT22;38173;52.850;6.970;2023-02-13T04:44:31;6.00;99.90
52203;DHT22;38173;52.850;6.970;2023-02-13T04:46:57;6.00;99.90
52203;DHT22;38173;52.850;6.970;2023-02-13T04:49:22;5.90;99.90
52203;DHT22;38173;52.850;6.970;2023-02-13T04:51:48;6.00;99.90
52203;DHT22;38173;52.850;6.970;2023-02-13T04:54:14;6.00;99.90
52203;DHT22;38173;52.850;6.970;2023-02-13T04:56:39;5.90;99.90
52203;DHT22;38173;52.850;6.970;2023-02-13T04:59:05;6.00;99.90
52203;DHT22;38173;52.850;6.970;2023-02-13T05:01:31;5.90;99.90
52203;DHT22;38173;52.850;6.970;2023-02-13T05:03:56;5.90;99.90
52203;DHT22;38173;52.850;6.970;2023-02-13T05:06:22;5.90;99.90
52203;DHT22;38173;52.850;6.970;2023-02-13T05:08:47;6.00;99.90
52203;DHT22;38173;52.850;6.970;2023-02-13T05:11:13;6.00;99.90
52203;DHT22;38173;52.850;6.970;2023-02-13T05:13:38;6.00;99.90
52203;DHT22;38173;52.850;6.970;2023-02-13T05:16:04;5.90;99.90
52203;DHT22;38173;52.850;6.970;2023-02-13T05:18:30;5.90;99.90
52203;DHT22;38173;52.850;6.970;2023-02-13T05:20:55;5.90;99.90
52203;DHT22;38173;52.850;6.970;2023-02-13T05:23:40;5.90;99.90
52203;DHT22;38173;52.850;6.970;2023-02-13T05:26:05;5.90;99.90
52203;DHT22;38173;52.850;6.970;2023-02-13T05:28:32;5.90;99.90
52203;DHT22;38173;52.850;6.970;2023-02-13T05:31:16;5.90;99.90
52203;DHT22;38173;52.850;6.970;2023-02-13T05:33:42;5.80;99.90
52203;DHT22;38173;52.850;6.970;2023-02-13T05:36:07;5.80;99.90
52203;DHT22;38173;52.850;6.970;2023-02-13T05:38:33;5.90;99.90
52203;DHT22;38173;52.850;6.970;2023-02-13T05:40:59;5.80;99.90
52203;DHT22;38173;52.850;6.970;2023-02-13T05:43:25;5.80;99.90
52203;DHT22;38173;52.850;6.970;2023-02-13T05:45:51;5.80;99.90
52203;DHT22;38173;52.850;6.970;2023-02-13T05:48:16;5.80;99.90
52203;DHT22;38173;52.850;6.970;2023-02-13T05:50:42;5.80;99.90
52203;DHT22;38173;52.850;6.970;2023-02-13T05:53:10;5.80;99.90
52203;DHT22;38173;52.850;6.970;2023-02-13T05:55:35;5.80;99.90
52203;DHT22;38173;52.850;6.970;2023-02-13T05:58:03;5.90;99.90
52203;DHT22;38173;52.850;6.970;2023-02-13T06:00:28;5.80;99.90
52203;DHT22;38173;52.850;6.970;2023-02-13T06:02:54;5.80;99.90
52203;DHT22;38173;52.850;6.970;2023-02-13T06:05:20;5.90;99.90
52203;DHT22;38173;52.850;6.970;2023-02-13T06:07:45;5.80;99.90
52203;DHT22;38173;52.850;6.970;2023-02-13T06:10:11;5.80;99.90
52203;DHT22;38173;52.850;6.970;2023-02-13T06:12:37;5.90;99.90
52203;DHT22;38173;52.850;6.970;2023-02-13T06:15:02;5.90;99.90
52203;DHT22;38173;52.850;6.970;2023-02-13T06:17:28;5.80;99.90
52203;DHT22;38173;52.850;6.970;2023-02-13T06:19:54;5.80;99.90
52203;DHT22;38173;52.850;6.970;2023-02-13T06:22:19;5.90;99.90
52203;DHT22;38173;52.850;6.970;2023-02-13T06:24:45;5.90;99.90
52203;DHT22;38173;52.850;6.970;2023-02-13T06:27:11;5.90;99.90
52203;DHT22;38173;52.850;6.970;2023-02-13T06:29:36;5.90;99.90
52203;DHT22;38173;52.850;6.970;2023-02-13T06:32:02;5.90;99.90
52203;DHT22;38173;52.850;6.970;2023-02-13T06:34:28;5.90;99.90
52203;DHT22;38173;52.850;6.970;2023-02-13T06:36:53;5.90;99.90
52203;DHT22;38173;52.850;6.970;2023-02-13T06:39:19;5.90;99.90
52203;DHT22;38173;52.850;6.970;2023-02-13T06:41:45;5.90;99.90
52203;DHT22;38173;52.850;6.970;2023-02-13T06:44:10;5.90;99.90
52203;DHT22;38173;52.850;6.970;2023-02-13T06:46:37;5.90;99.90
52203;DHT22;38173;52.850;6.970;2023-02-13T06:49:04;5.80;99.90
52203;DHT22;38173;52.850;6.970;2023-02-13T06:51:29;5.80;99.90
52203;DHT22;38173;52.850;6.970;2023-02-13T06:53:55;5.80;99.90
52203;DHT22;38173;52.850;6.970;2023-02-13T06:56:21;5.70;99.90
52203;DHT22;38173;52.850;6.970;2023-02-13T06:58:47;5.80;99.90
52203;DHT22;38173;52.850;6.970;2023-02-13T07:01:12;5.80;99.90
52203;DHT22;38173;52.850;6.970;2023-02-13T07:03:38;5.80;99.90
52203;DHT22;38173;52.850;6.970;2023-02-13T07:06:03;5.70;99.90
52203;DHT22;38173;52.850;6.970;2023-02-13T07:08:29;5.70;99.90
52203;DHT22;38173;52.850;6.970;2023-02-13T07:10:55;5.80;99.90
52203;DHT22;38173;52.850;6.970;2023-02-13T07:13:22;5.80;99.90
52203;DHT22;38173;52.850;6.970;2023-02-13T07:15:48;5.80;99.90
52203;DHT22;38173;52.850;6.970;2023-02-13T07:18:13;5.80;99.90
52203;DHT22;38173;52.850;6.970;2023-02-13T07:20:39;5.80;99.90
52203;DHT22;38173;52.850;6.970;2023-02-13T07:23:05;5.80;99.90
52203;DHT22;38173;52.850;6.970;2023-02-13T07:25:31;5.70;99.90
52203;DHT22;38173;52.850;6.970;2023-02-13T07:28:01;5.80;99.90
52203;DHT22;38173;52.850;6.970;2023-02-13T07:30:28;5.80;99.90
52203;DHT22;38173;52.850;6.970;2023-02-13T07:32:56;5.80;99.90
52203;DHT22;38173;52.850;6.970;2023-02-13T07:38:01;5.90;99.90
52203;DHT22;38173;52.850;6.970;2023-02-13T07:40:27;5.90;99.90
52203;DHT22;38173;52.850;6.970;2023-02-13T07:42:52;5.90;99.90
52203;DHT22;38173;52.850;6.970;2023-02-13T07:45:18;5.90;99.90
52203;DHT22;38173;52.850;6.970;2023-02-13T07:47:44;5.90;99.90
52203;DHT22;38173;52.850;6.970;2023-02-13T07:50:10;5.90;99.90
52203;DHT22;38173;52.850;6.970;2023-02-13T07:52:35;5.90;99.90
52203;DHT22;38173;52.850;6.970;2023-02-13T07:55:02;6.00;99.90
52203;DHT22;38173;52.850;6.970;2023-02-13T07:57:28;6.00;99.90
52203;DHT22;38173;52.850;6.970;2023-02-13T07:59:56;6.00;99.90
52203;DHT22;38173;52.850;6.970;2023-02-13T08:02:22;6.10;99.90
52203;DHT22;38173;52.850;6.970;2023-02-13T08:04:48;6.10;99.90
52203;DHT22;38173;52.850;6.970;2023-02-13T08:09:51;6.10;99.90
52203;DHT22;38173;52.850;6.970;2023-02-13T08:12:36;6.20;99.90
52203;DHT22;38173;52.850;6.970;2023-02-13T08:15:02;6.20;99.90
52203;DHT22;38173;52.850;6.970;2023-02-13T08:17:28;6.20;99.90
52203;DHT22;38173;52.850;6.970;2023-02-13T08:19:53;6.20;99.90
52203;DHT22;38173;52.850;6.970;2023-02-13T08:22:19;6.20;99.90
52203;DHT22;38173;52.850;6.970;2023-02-13T08:24:45;6.30;99.90
52203;DHT22;38173;52.850;6.970;2023-02-13T08:27:14;6.30;99.90
52203;DHT22;38173;52.850;6.970;2023-02-13T08:29:40;6.40;99.90
52203;DHT22;38173;52.850;6.970;2023-02-13T08:32:06;6.40;99.90
52203;DHT22;38173;52.850;6.970;2023-02-13T08:34:32;6.40;99.90
52203;DHT22;38173;52.850;6.970;2023-02-13T08:36:57;6.50;99.90
52203;DHT22;38173;52.850;6.970;2023-02-13T08:39:23;6.50;99.90
52203;DHT22;38173;52.850;6.970;2023-02-13T08:41:49;6.50;99.90
52203;DHT22;38173;52.850;6.970;2023-02-13T08:44:14;6.60;99.90
52203;DHT22;38173;52.850;6.970;2023-02-13T08:46:40;6.60;99.90
52203;DHT22;38173;52.850;6.970;2023-02-13T08:49:05;6.60;99.90
52203;DHT22;38173;52.850;6.970;2023-02-13T08:51:32;6.60;99.90
52203;DHT22;38173;52.850;6.970;2023-02-13T08:53:57;6.60;99.90
52203;DHT22;38173;52.850;6.970;2023-02-13T08:56:23;6.70;99.90
52203;DHT22;38173;52.850;6.970;2023-02-13T08:58:49;6.70;99.90
52203;DHT22;38173;52.850;6.970;2023-02-13T09:01:14;6.70;99.90
52203;DHT22;38173;52.850;6.970;2023-02-13T09:03:40;6.70;99.90
52203;DHT22;38173;52.850;6.970;2023-02-13T09:06:07;6.80;99.90
52203;DHT22;38173;52.850;6.970;2023-02-13T09:08:33;6.80;99.90
52203;DHT22;38173;52.850;6.970;2023-02-13T09:10:59;6.80;99.90
52203;DHT22;38173;52.850;6.970;2023-02-13T09:13:26;6.90;99.90
52203;DHT22;38173;52.850;6.970;2023-02-13T09:15:52;6.80;99.90
52203;DHT22;38173;52.850;6.970;2023-02-13T09:18:18;6.90;99.90
52203;DHT22;38173;52.850;6.970;2023-02-13T09:20:43;6.90;99.90
52203;DHT22;38173;52.850;6.970;2023-02-13T09:23:10;7.00;99.90
52203;DHT22;38173;52.850;6.970;2023-02-13T09:25:35;7.00;99.90
52203;DHT22;38173;52.850;6.970;2023-02-13T09:28:01;7.00;99.90
52203;DHT22;38173;52.850;6.970;2023-02-13T09:30:26;7.10;99.90
52203;DHT22;38173;52.850;6.970;2023-02-13T09:32:52;7.10;99.90
52203;DHT22;38173;52.850;6.970;2023-02-13T09:35:19;7.10;99.90
52203;DHT22;38173;52.850;6.970;2023-02-13T09:37:44;7.10;99.90
52203;DHT22;38173;52.850;6.970;2023-02-13T09:42:45;7.20;99.90
52203;DHT22;38173;52.850;6.970;2023-02-13T09:45:11;7.20;99.90
52203;DHT22;38173;52.850;6.970;2023-02-13T09:47:38;7.20;99.90
52203;DHT22;38173;52.850;6.970;2023-02-13T09:50:09;7.20;99.90
52203;DHT22;38173;52.850;6.970;2023-02-13T09:52:36;7.30;99.90
52203;DHT22;38173;52.850;6.970;2023-02-13T09:55:05;7.30;99.90
52203;DHT22;38173;52.850;6.970;2023-02-13T09:57:36;7.30;99.90
52203;DHT22;38173;52.850;6.970;2023-02-13T10:05:15;7.50;99.90
52203;DHT22;38173;52.850;6.970;2023-02-13T10:13:10;7.60;99.90
52203;DHT22;38173;52.850;6.970;2023-02-13T10:15:46;7.60;99.90
52203;DHT22;38173;52.850;6.970;2023-02-13T10:18:15;7.70;99.90
52203;DHT22;38173;52.850;6.970;2023-02-13T10:20:46;7.80;99.90
52203;DHT22;38173;52.850;6.970;2023-02-13T10:23:18;7.80;99.90
52203;DHT22;38173;52.850;6.970;2023-02-13T10:25:47;7.90;99.90
52203;DHT22;38173;52.850;6.970;2023-02-13T10:28:38;7.90;99.90
52203;DHT22;38173;52.850;6.970;2023-02-13T10:31:09;7.90;99.90
52203;DHT22;38173;52.850;6.970;2023-02-13T10:33:46;8.00;99.90
52203;DHT22;38173;52.850;6.970;2023-02-13T10:36:29;8.10;99.90
52203;DHT22;38173;52.850;6.970;2023-02-13T10:54:27;8.40;99.90
52203;DHT22;38173;52.850;6.970;2023-02-13T10:59:34;8.40;99.90
52203;DHT22;38173;52.850;6.970;2023-02-13T11:04:27;8.50;99.90
52203;DHT22;38173;52.850;6.970;2023-02-13T11:06:57;8.50;99.90
52203;DHT22;38173;52.850;6.970;2023-02-13T11:09:23;8.60;99.90
52203;DHT22;38173;52.850;6.970;2023-02-13T11:11:49;8.60;99.90
52203;DHT22;38173;52.850;6.970;2023-02-13T11:14:19;8.70;99.90
52203;DHT22;38173;52.850;6.970;2023-02-13T11:19:18;8.80;99.90
52203;DHT22;38173;52.850;6.970;2023-02-13T11:21:45;8.80;99.90
52203;DHT22;38173;52.850;6.970;2023-02-13T11:24:18;8.80;99.90
52203;DHT22;38173;52.850;6.970;2023-02-13T11:26:48;8.80;99.90
52203;DHT22;38173;52.850;6.970;2023-02-13T11:29:36;8.90;99.90
52203;DHT22;38173;52.850;6.970;2023-02-13T11:34:38;9.00;99.90
52203;DHT22;38173;52.850;6.970;2023-02-13T11:39:39;9.10;99.90
52203;DHT22;38173;52.850;6.970;2023-02-13T11:42:15;9.10;99.90
52203;DHT22;38173;52.850;6.970;2023-02-13T11:44:41;9.10;99.90
52203;DHT22;38173;52.850;6.970;2023-02-13T11:47:08;9.20;99.90
52203;DHT22;38173;52.850;6.970;2023-02-13T11:49:37;9.20;99.90
52203;DHT22;38173;52.850;6.970;2023-02-13T11:52:09;9.20;99.90
52203;DHT22;38173;52.850;6.970;2023-02-13T11:54:45;9.20;99.90
52203;DHT22;38173;52.850;6.970;2023-02-13T11:59:54;9.30;99.90
52203;DHT22;38173;52.850;6.970;2023-02-13T12:02:28;9.40;99.90
52203;DHT22;38173;52.850;6.970;2023-02-13T12:04:55;9.40;99.90
52203;DHT22;38173;52.850;6.970;2023-02-13T12:07:38;9.50;99.90
52203;DHT22;38173;52.850;6.970;2023-02-13T12:10:10;9.60;99.90
52203;DHT22;38173;52.850;6.970;2023-02-13T12:12:57;9.60;99.90
52203;DHT22;38173;52.850;6.970;2023-02-13T12:15:31;9.70;99.90
52203;DHT22;38173;52.850;6.970;2023-02-13T12:20:38;9.90;99.90
52203;DHT22;38173;52.850;6.970;2023-02-13T12:23:12;9.90;99.90
52203;DHT22;38173;52.850;6.970;2023-02-13T12:28:27;10.10;99.90
52203;DHT22;38173;52.850;6.970;2023-02-13T12:39:16;10.40;99.90
52203;DHT22;38173;52.850;6.970;2023-02-13T12:42:17;10.40;99.90
52203;DHT22;38173;52.850;6.970;2023-02-13T12:47:09;10.50;99.90
52203;DHT22;38173;52.850;6.970;2023-02-13T12:57:54;10.30;99.90
52203;DHT22;38173;52.850;6.970;2023-02-13T13:00:27;10.20;99.90
52203;DHT22;38173;52.850;6.970;2023-02-13T13:13:11;10.30;99.90
52203;DHT22;38173;52.850;6.970;2023-02-13T13:18:27;10.20;99.90
52203;DHT22;38173;52.850;6.970;2023-02-13T13:21:04;10.30;99.90
52203;DHT22;38173;52.850;6.970;2023-02-13T13:28:41;10.60;99.90
52203;DHT22;38173;52.850;6.970;2023-02-13T13:31:08;10.70;99.90
52203;DHT22;38173;52.850;6.970;2023-02-13T13:33:34;10.80;99.90
52203;DHT22;38173;52.850;6.970;2023-02-13T13:46:45;10.80;99.90
52203;DHT22;38173;52.850;6.970;2023-02-13T13:49:33;10.70;99.90
52203;DHT22;38173;52.850;6.970;2023-02-13T13:52:20;10.50;99.90
52203;DHT22;38173;52.850;6.970;2023-02-13T13:54:47;10.40;99.90
52203;DHT22;38173;52.850;6.970;2023-02-13T13:57:25;10.30;99.90
52203;DHT22;38173;52.850;6.970;2023-02-13T13:59:55;10.40;99.90
52203;DHT22;38173;52.850;6.970;2023-02-13T14:05:08;10.60;99.90
52203;DHT22;38173;52.850;6.970;2023-02-13T14:07:41;10.70;99.90
52203;DHT22;38173;52.850;6.970;2023-02-13T14:12:46;10.80;99.90
52203;DHT22;38173;52.850;6.970;2023-02-13T14:17:56;10.90;99.90
52203;DHT22;38173;52.850;6.970;2023-02-13T14:23:05;10.90;99.90
52203;DHT22;38173;52.850;6.970;2023-02-13T14:25:31;10.90;99.90
52203;DHT22;38173;52.850;6.970;2023-02-13T14:27:58;10.90;99.90
52203;DHT22;38173;52.850;6.970;2023-02-13T14:30:32;11.00;99.90
52203;DHT22;38173;52.850;6.970;2023-02-13T14:33:03;11.00;99.90
52203;DHT22;38173;52.850;6.970;2023-02-13T14:35:31;11.10;99.90
52203;DHT22;38173;52.850;6.970;2023-02-13T14:37:59;11.20;99.90
52203;DHT22;38173;52.850;6.970;2023-02-13T14:40:29;11.30;99.90
52203;DHT22;38173;52.850;6.970;2023-02-13T14:43:00;11.30;99.90
52203;DHT22;38173;52.850;6.970;2023-02-13T14:45:27;11.30;99.90
52203;DHT22;38173;52.850;6.970;2023-02-13T14:47:56;11.30;99.90
52203;DHT22;38173;52.850;6.970;2023-02-13T14:50:27;11.40;99.90
52203;DHT22;38173;52.850;6.970;2023-02-13T14:52:53;11.60;99.90
52203;DHT22;38173;52.850;6.970;2023-02-13T14:55:39;11.80;99.90
52203;DHT22;38173;52.850;6.970;2023-02-13T14:58:06;11.60;99.90
52203;DHT22;38173;52.850;6.970;2023-02-13T15:06:02;10.80;99.90
52203;DHT22;38173;52.850;6.970;2023-02-13T15:08:31;10.70;99.90
52203;DHT22;38173;52.850;6.970;2023-02-13T15:10:58;10.60;99.90
52203;DHT22;38173;52.850;6.970;2023-02-13T15:13:34;10.50;99.90
52203;DHT22;38173;52.850;6.970;2023-02-13T15:16:08;10.50;99.90
52203;DHT22;38173;52.850;6.970;2023-02-13T15:21:08;10.80;99.90
52203;DHT22;38173;52.850;6.970;2023-02-13T15:23:36;10.70;99.90
52203;DHT22;38173;52.850;6.970;2023-02-13T15:26:03;10.70;99.90
52203;DHT22;38173;52.850;6.970;2023-02-13T15:28:30;10.70;99.90
52203;DHT22;38173;52.850;6.970;2023-02-13T15:31:00;10.70;99.90
52203;DHT22;38173;52.850;6.970;2023-02-13T15:33:31;10.70;99.90
52203;DHT22;38173;52.850;6.970;2023-02-13T15:35:59;10.70;99.90
52203;DHT22;38173;52.850;6.970;2023-02-13T15:40:51;10.70;99.90
52203;DHT22;38173;52.850;6.970;2023-02-13T15:43:27;10.60;99.90
52203;DHT22;38173;52.850;6.970;2023-02-13T15:45:55;10.30;99.90
52203;DHT22;38173;52.850;6.970;2023-02-13T15:48:23;10.10;99.90
52203;DHT22;38173;52.850;6.970;2023-02-13T15:50:49;9.90;99.90
52203;DHT22;38173;52.850;6.970;2023-02-13T15:53:15;9.70;99.90
52203;DHT22;38173;52.850;6.970;2023-02-13T15:55:53;9.50;99.90
52203;DHT22;38173;52.850;6.970;2023-02-13T15:58:20;9.30;99.90
52203;DHT22;38173;52.850;6.970;2023-02-13T16:00:45;9.20;99.90
52203;DHT22;38173;52.850;6.970;2023-02-13T16:03:15;9.10;99.90
52203;DHT22;38173;52.850;6.970;2023-02-13T16:05:41;8.90;99.90
52203;DHT22;38173;52.850;6.970;2023-02-13T16:13:39;8.50;99.90
52203;DHT22;38173;52.850;6.970;2023-02-13T16:16:08;8.40;99.90
52203;DHT22;38173;52.850;6.970;2023-02-13T16:18:34;8.30;99.90
52203;DHT22;38173;52.850;6.970;2023-02-13T16:21:00;8.20;99.90
52203;DHT22;38173;52.850;6.970;2023-02-13T16:23:27;8.10;99.90
52203;DHT22;38173;52.850;6.970;2023-02-13T16:25:59;8.00;99.90
52203;DHT22;38173;52.850;6.970;2023-02-13T16:28:25;7.90;99.90
52203;DHT22;38173;52.850;6.970;2023-02-13T16:33:23;7.70;99.90
52203;DHT22;38173;52.850;6.970;2023-02-13T16:35:52;7.60;99.90
52203;DHT22;38173;52.850;6.970;2023-02-13T16:38:30;7.60;99.90
52203;DHT22;38173;52.850;6.970;2023-02-13T16:40:57;7.50;99.90
52203;DHT22;38173;52.850;6.970;2023-02-13T16:46:11;7.30;99.90
52203;DHT22;38173;52.850;6.970;2023-02-13T16:48:43;7.30;99.90
52203;DHT22;38173;52.850;6.970;2023-02-13T16:51:10;7.10;99.90
52203;DHT22;38173;52.850;6.970;2023-02-13T16:53:36;7.10;99.90
52203;DHT22;38173;52.850;6.970;2023-02-13T16:56:09;7.00;99.90
52203;DHT22;38173;52.850;6.970;2023-02-13T16:58:35;6.90;99.90
52203;DHT22;38173;52.850;6.970;2023-02-13T17:01:02;6.80;99.90
52203;DHT22;38173;52.850;6.970;2023-02-13T17:03:28;6.80;99.90
52203;DHT22;38173;52.850;6.970;2023-02-13T17:05:56;6.70;99.90
52203;DHT22;38173;52.850;6.970;2023-02-13T17:08:25;6.60;99.90
52203;DHT22;38173;52.850;6.970;2023-02-13T17:11:02;6.60;99.90
52203;DHT22;38173;52.850;6.970;2023-02-13T17:13:28;6.50;99.90
52203;DHT22;38173;52.850;6.970;2023-02-13T17:15:54;6.50;99.90
52203;DHT22;38173;52.850;6.970;2023-02-13T17:18:20;6.40;99.90
52203;DHT22;38173;52.850;6.970;2023-02-13T17:20:45;6.30;99.90
52203;DHT22;38173;52.850;6.970;2023-02-13T17:23:13;6.30;99.90
52203;DHT22;38173;52.850;6.970;2023-02-13T17:25:39;6.30;99.90
52203;DHT22;38173;52.850;6.970;2023-02-13T17:28:13;6.20;99.90
52203;DHT22;38173;52.850;6.970;2023-02-13T17:30:39;6.20;99.90
52203;DHT22;38173;52.850;6.970;2023-02-13T17:33:06;6.10;99.90
52203;DHT22;38173;52.850;6.970;2023-02-13T17:35:34;6.10;99.90
52203;DHT22;38173;52.850;6.970;2023-02-13T17:38:00;6.00;99.90
52203;DHT22;38173;52.850;6.970;2023-02-13T17:40:26;6.00;99.90
52203;DHT22;38173;52.850;6.970;2023-02-13T17:42:54;5.90;99.90
52203;DHT22;38173;52.850;6.970;2023-02-13T17:45:27;5.90;99.90
52203;DHT22;38173;52.850;6.970;2023-02-13T17:47:54;5.80;99.90
52203;DHT22;38173;52.850;6.970;2023-02-13T17:50:22;5.80;99.90
52203;DHT22;38173;52.850;6.970;2023-02-13T17:52:48;5.80;99.90
52203;DHT22;38173;52.850;6.970;2023-02-13T17:55:19;5.80;99.90
52203;DHT22;38173;52.850;6.970;2023-02-13T17:57:49;5.70;99.90
52203;DHT22;38173;52.850;6.970;2023-02-13T18:00:15;5.70;99.90
52203;DHT22;38173;52.850;6.970;2023-02-13T18:02:41;5.70;99.90
52203;DHT22;38173;52.850;6.970;2023-02-13T18:05:07;5.70;99.90
52203;DHT22;38173;52.850;6.970;2023-02-13T18:07:33;5.60;99.90
52203;DHT22;38173;52.850;6.970;2023-02-13T18:09:58;5.60;99.90
52203;DHT22;38173;52.850;6.970;2023-02-13T18:12:24;5.60;99.90
52203;DHT22;38173;52.850;6.970;2023-02-13T18:14:51;5.60;99.90
52203;DHT22;38173;52.850;6.970;2023-02-13T18:17:17;5.60;99.90
52203;DHT22;38173;52.850;6.970;2023-02-13T18:19:43;5.50;99.90
52203;DHT22;38173;52.850;6.970;2023-02-13T18:22:09;5.50;99.90
52203;DHT22;38173;52.850;6.970;2023-02-13T18:24:36;5.40;99.90
52203;DHT22;38173;52.850;6.970;2023-02-13T18:27:02;5.30;99.90
52203;DHT22;38173;52.850;6.970;2023-02-13T18:29:30;5.20;99.90
52203;DHT22;38173;52.850;6.970;2023-02-13T18:31:56;5.10;99.90
52203;DHT22;38173;52.850;6.970;2023-02-13T18:34:22;5.10;99.90
52203;DHT22;38173;52.850;6.970;2023-02-13T18:36:49;5.00;99.90
52203;DHT22;38173;52.850;6.970;2023-02-13T18:39:15;5.00;99.90
52203;DHT22;38173;52.850;6.970;2023-02-13T18:41:41;5.00;99.90
52203;DHT22;38173;52.850;6.970;2023-02-13T18:44:07;5.00;99.90
52203;DHT22;38173;52.850;6.970;2023-02-13T18:46:32;4.90;99.90
52203;DHT22;38173;52.850;6.970;2023-02-13T18:48:59;4.90;99.90
52203;DHT22;38173;52.850;6.970;2023-02-13T18:51:25;4.90;99.90
52203;DHT22;38173;52.850;6.970;2023-02-13T18:53:51;4.80;99.90
52203;DHT22;38173;52.850;6.970;2023-02-13T18:56:16;4.70;99.90
52203;DHT22;38173;52.850;6.970;2023-02-13T18:58:45;4.70;99.90
52203;DHT22;38173;52.850;6.970;2023-02-13T19:01:15;4.60;99.90
52203;DHT22;38173;52.850;6.970;2023-02-13T19:03:44;4.50;99.90